Time;durP1;ratioP1;P1;durP2;ratioP2;P2;SDS_P1;SDS_P2;PMS_P1;PMS_P2;Temp;Humidity;BMP_temperature;BMP_pressure;BME280_temperature;BME280_humidity;BME280_pressure;Samples;Min_cycle;Max_cycle;Signal;HPM_P1;HPM_P2
2023/05/22 18:30:51;;;;;;;26.83;9.15;;;;;;;;;;5052933;27;21127;-56
2023/05/22 18:33:16;;;;;;;23.75;8.45;;;;;;;;;;5060875;28;20025;-57
2023/05/22 18:35:42;;;;;;;23.33;8.65;;;;;;;;;;5060843;28;20230;-54
2023/05/22 18:38:07;;;;;;;40.47;10.43;;;;;;;;;;5049429;28;20193;-55
2023/05/22 18:40:32;;;;;;;23.63;9.23;;;;;;;;;;5050533;28;20053;-59
2023/05/22 18:42:58;;;;;;;21.57;9.33;;;;;;;;;;5049213;28;20593;-59
2023/05/22 18:45:23;;;;;;;23.33;9.07;;;;;;;;;;5051190;28;20493;-59
2023/05/22 18:47:48;;;;;;;18.67;8.43;;;;;;;;;;5051506;28;20028;-59
2023/05/22 18:50:13;;;;;;;30.13;10.50;;;;;;;;;;5048706;28;20469;-59
2023/05/22 18:52:39;;;;;;;19.27;8.05;;;;;;;;;;5051593;28;20451;-58
2023/05/22 18:55:04;;;;;;;28.38;9.90;;;;;;;;;;5048522;28;20470;-64
2023/05/22 18:57:29;;;;;;;18.38;8.77;;;;;;;;;;5049553;28;20847;-60
2023/05/22 18:59:55;;;;;;;21.83;8.63;;;;;;;;;;5040617;28;20052;-58
2023/05/22 19:02:20;;;;;;;21.23;8.80;;;;;;;;;;5026517;28;20874;-60
2023/05/22 19:04:46;;;;;;;17.55;8.50;;;;;;;;;;5028232;28;20272;-59
2023/05/22 19:07:11;;;;;;;24.92;9.65;;;;;;;;;;5024364;28;20033;-56
2023/05/22 19:09:37;;;;;;;20.03;8.47;;;;;;;;;;5027087;28;20031;-57
2023/05/22 19:12:02;;;;;;;23.20;9.05;;;;;;;;;;5025185;28;20303;-57
2023/05/22 19:14:27;;;;;;;23.17;9.35;;;;;;;;;;5025468;28;20083;-58
2023/05/22 19:16:53;;;;;;;22.30;8.77;;;;;;;;;;5029141;28;20032;-56
2023/05/22 19:19:18;;;;;;;21.17;9.07;;;;;;;;;;5027581;28;20260;-58
2023/05/22 19:21:43;;;;;;;24.80;8.90;;;;;;;;;;5028979;28;20272;-56
2023/05/22 19:24:09;;;;;;;27.67;9.80;;;;;;;;;;5028480;28;20773;-56
2023/05/22 19:26:34;;;;;;;19.87;8.70;;;;;;;;;;5028399;28;20113;-57
2023/05/22 19:28:59;;;;;;;25.13;9.53;;;;;;;;;;5026551;28;20286;-57
2023/05/22 19:31:27;;;;;;;22.03;9.07;;;;;;;;;;5028076;28;20276;-59
2023/05/22 19:33:53;;;;;;;25.65;9.18;;;;;;;;;;5028695;28;20321;-57
2023/05/22 19:36:18;;;;;;;24.30;9.40;;;;;;;;;;5027847;28;20113;-59
2023/05/22 19:38:43;;;;;;;22.23;9.10;;;;;;;;;;5029868;28;20026;-59
2023/05/22 19:41:08;;;;;;;28.27;10.57;;;;;;;;;;5020520;28;21008;-58
2023/05/22 19:43:34;;;;;;;23.43;8.97;;;;;;;;;;5015953;28;20525;-58
2023/05/22 19:45:59;;;;;;;21.67;9.38;;;;;;;;;;5014397;28;20525;-56
2023/05/22 19:48:25;;;;;;;23.48;9.32;;;;;;;;;;5016053;28;20160;-54
2023/05/22 19:50:51;;;;;;;24.48;9.95;;;;;;;;;;5015850;28;20041;-57
2023/05/22 19:53:16;;;;;;;36.58;12.27;;;;;;;;;;5014655;28;20394;-54
2023/05/22 19:55:41;;;;;;;27.83;9.55;;;;;;;;;;5016296;28;20060;-56
2023/05/22 19:58:06;;;;;;;33.77;11.33;;;;;;;;;;5012673;28;20017;-53
2023/05/22 20:00:32;;;;;;;29.40;10.47;;;;;;;;;;5014934;28;20276;-58
2023/05/22 20:02:57;;;;;;;30.63;10.75;;;;;;;;;;5015199;28;20939;-55
2023/05/22 20:05:23;;;;;;;25.35;10.02;;;;;;;;;;5012099;28;20032;-58
2023/05/22 20:07:49;;;;;;;26.45;9.77;;;;;;;;;;5015588;28;20025;-58
2023/05/22 20:10:15;;;;;;;32.67;11.18;;;;;;;;;;5012626;28;20021;-59
2023/05/22 20:12:40;;;;;;;28.13;10.93;;;;;;;;;;5014834;28;20014;-58
2023/05/22 20:15:05;;;;;;;32.28;10.95;;;;;;;;;;5013758;28;20387;-55
2023/05/22 20:17:31;;;;;;;22.80;9.85;;;;;;;;;;5014785;28;20413;-57
2023/05/22 20:19:59;;;;;;;27.08;10.77;;;;;;;;;;5014353;28;20083;-58
2023/05/22 20:22:25;;;;;;;27.35;10.43;;;;;;;;;;5011883;28;20038;-54
2023/05/22 20:24:51;;;;;;;25.45;10.77;;;;;;;;;;5014125;28;20075;-56
2023/05/22 20:27:16;;;;;;;39.03;12.52;;;;;;;;;;5012228;28;20036;-57
2023/05/22 20:29:41;;;;;;;21.13;10.00;;;;;;;;;;5014892;28;20032;-61
2023/05/22 20:32:07;;;;;;;29.73;11.50;;;;;;;;;;5012216;28;21069;-58
2023/05/22 20:34:32;;;;;;;26.05;10.23;;;;;;;;;;5014208;28;20619;-61
2023/05/22 20:36:58;;;;;;;26.23;10.40;;;;;;;;;;5012201;28;20115;-61
2023/05/22 20:39:25;;;;;;;25.50;11.27;;;;;;;;;;5012854;28;20025;-60
2023/05/22 20:41:50;;;;;;;30.08;11.27;;;;;;;;;;5013846;28;20041;-58
2023/05/22 20:44:22;;;;;;;28.95;11.50;;;;;;;;;;5012654;28;20043;-60
2023/05/22 20:46:48;;;;;;;30.15;10.73;;;;;;;;;;5001464;28;20112;-62
2023/05/22 20:49:13;;;;;;;29.30;11.00;;;;;;;;;;5012791;28;20466;-56
2023/05/22 20:51:38;;;;;;;24.17;10.70;;;;;;;;;;5013900;28;20025;-58
2023/05/22 20:54:03;;;;;;;24.23;10.43;;;;;;;;;;5012969;28;20025;-55
2023/05/22 20:56:28;;;;;;;19.38;10.27;;;;;;;;;;5012581;28;20304;-59
2023/05/22 20:58:54;;;;;;;25.17;11.87;;;;;;;;;;5011596;28;20051;-56
2023/05/22 21:01:20;;;;;;;26.98;11.10;;;;;;;;;;5012624;28;20030;-56
2023/05/22 21:03:45;;;;;;;25.80;11.57;;;;;;;;;;5014472;28;20037;-55
2023/05/22 21:06:10;;;;;;;32.53;12.00;;;;;;;;;;5012912;28;20527;-55
2023/05/22 21:08:36;;;;;;;24.10;11.10;;;;;;;;;;5015478;28;20018;-54
2023/05/22 21:11:01;;;;;;;23.13;9.90;;;;;;;;;;5014030;28;20268;-58
2023/05/22 21:13:26;;;;;;;24.48;10.13;;;;;;;;;;5012252;28;20272;-59
2023/05/22 21:15:51;;;;;;;26.70;10.37;;;;;;;;;;5012246;28;20056;-59
2023/05/22 21:18:18;;;;;;;45.40;12.63;;;;;;;;;;5012949;28;20325;-58
2023/05/22 21:20:44;;;;;;;29.77;11.18;;;;;;;;;;5013965;28;20041;-57
2023/05/22 21:23:09;;;;;;;42.13;13.32;;;;;;;;;;5011609;28;20821;-57
2023/05/22 21:25:35;;;;;;;29.48;11.85;;;;;;;;;;5013191;28;20132;-58
2023/05/22 21:28:01;;;;;;;27.50;11.40;;;;;;;;;;5013449;28;20017;-56
2023/05/22 21:30:26;;;;;;;29.80;11.73;;;;;;;;;;5011521;28;20414;-57
2023/05/22 21:32:51;;;;;;;27.67;10.83;;;;;;;;;;5013500;28;20044;-57
2023/05/22 21:35:16;;;;;;;44.43;13.23;;;;;;;;;;5011929;28;20287;-56
2023/05/22 21:37:42;;;;;;;27.63;10.80;;;;;;;;;;5014351;28;20379;-56
2023/05/22 21:40:07;;;;;;;24.87;10.57;;;;;;;;;;5010548;28;20942;-62
2023/05/22 21:42:32;;;;;;;27.30;11.25;;;;;;;;;;5012989;28;20898;-62
2023/05/22 21:44:58;;;;;;;28.20;11.63;;;;;;;;;;5013552;28;20091;-61
2023/05/22 21:47:23;;;;;;;41.50;12.30;;;;;;;;;;5010814;28;20546;-55
2023/05/22 21:49:48;;;;;;;27.93;11.60;;;;;;;;;;5013945;28;20621;-57
2023/05/22 21:52:14;;;;;;;40.97;12.87;;;;;;;;;;5011035;28;20334;-56
2023/05/22 21:54:39;;;;;;;24.35;10.98;;;;;;;;;;5013892;28;20268;-60
2023/05/22 21:57:04;;;;;;;33.05;11.55;;;;;;;;;;5011937;28;20027;-59
2023/05/22 21:59:30;;;;;;;26.30;10.70;;;;;;;;;;5010779;28;20033;-57
2023/05/22 22:01:55;;;;;;;29.25;11.20;;;;;;;;;;5013805;28;20033;-58
2023/05/22 22:04:20;;;;;;;43.35;12.85;;;;;;;;;;5011883;28;20112;-57
2023/05/22 22:06:45;;;;;;;23.43;11.00;;;;;;;;;;5012516;28;20041;-60
2023/05/22 22:09:11;;;;;;;44.73;13.27;;;;;;;;;;5011581;28;20280;-55
2023/05/22 22:11:36;;;;;;;27.38;11.20;;;;;;;;;;5012681;28;20280;-58
2023/05/22 22:14:01;;;;;;;29.88;11.57;;;;;;;;;;5011855;28;20056;-56
2023/05/22 22:16:27;;;;;;;34.70;12.23;;;;;;;;;;5008894;28;20604;-57
2023/05/22 22:18:52;;;;;;;31.48;11.82;;;;;;;;;;5013234;28;20083;-57
